Time;durP1;ratioP1;P1;durP2;ratioP2;P2;SDS_P1;SDS_P2;PMS_P1;PMS_P2;Temp;Humidity;BMP_temperature;BMP_pressure;BME280_temperature;BME280_humidity;BME280_pressure;Samples;Min_cycle;Max_cycle;Signal;HPM_P1;HPM_P2
2023/09/21 00:00:14;;;;;;;;;4.50;4.50;;;;;;;;5051883;28;47069;-76
2023/09/21 00:02:44;;;;;;;;;4.00;4.00;;;;;;;;5053013;28;45918;-76
2023/09/21 00:05:10;;;;;;;;;4.00;3.67;;;;;;;;5053999;28;44650;-75
2023/09/21 00:07:36;;;;;;;;;2.67;2.67;;;;;;;;5067850;28;45465;-76
2023/09/21 00:10:02;;;;;;;;;5.33;4.33;;;;;;;;5071211;28;47229;-76
2023/09/21 00:12:27;;;;;;;;;3.00;3.00;;;;;;;;5055108;28;45432;-75
2023/09/21 00:14:54;;;;;;;;;5.33;5.33;;;;;;;;5052447;28;45393;-76
2023/09/21 00:17:19;;;;;;;;;5.00;4.25;;;;;;;;5051670;28;45363;-75
2023/09/21 00:19:45;;;;;;;;;3.75;3.25;;;;;;;;5051016;28;45337;-76
2023/09/21 00:22:11;;;;;;;;;4.00;3.33;;;;;;;;5054979;28;47156;-75
2023/09/21 00:24:37;;;;;;;;;4.00;4.00;;;;;;;;5052803;28;45397;-75
2023/09/21 00:27:02;;;;;;;;;5.00;5.00;;;;;;;;5047899;28;45507;-75
2023/09/21 00:29:30;;;;;;;;;5.00;5.00;;;;;;;;5040589;28;44747;-75
2023/09/21 00:31:57;;;;;;;;;6.67;5.67;;;;;;;;5033234;28;47185;-76
2023/09/21 00:34:22;;;;;;;;;4.00;4.00;;;;;;;;5030459;28;45308;-75
2023/09/21 00:36:49;;;;;;;;;4.33;4.00;;;;;;;;5033808;28;45371;-75
2023/09/21 00:39:15;;;;;;;;;4.00;4.00;;;;;;;;5035077;28;45938;-76
2023/09/21 00:41:40;;;;;;;;;3.67;3.67;;;;;;;;5033879;28;45680;-76
2023/09/21 00:44:09;;;;;;;;;5.33;4.00;;;;;;;;5032323;28;45371;-75
2023/09/21 00:46:35;;;;;;;;;5.67;4.67;;;;;;;;5033966;28;45323;-75
2023/09/21 00:49:01;;;;;;;;;5.67;5.67;;;;;;;;5060760;28;45644;-75
2023/09/21 00:51:27;;;;;;;;;6.33;5.00;;;;;;;;5066908;28;46135;-75
2023/09/21 00:53:54;;;;;;;;;4.67;4.67;;;;;;;;5033383;28;45438;-75
2023/09/21 00:56:20;;;;;;;;;5.00;4.33;;;;;;;;5047019;28;45329;-75
2023/09/21 00:58:47;;;;;;;;;4.33;4.33;;;;;;;;5054357;28;44708;-75
2023/09/21 01:01:16;;;;;;;;;4.00;4.00;;;;;;;;5052508;28;45289;-76
2023/09/21 01:03:43;;;;;;;;;5.00;5.00;;;;;;;;5050976;28;46067;-75
2023/09/21 01:06:11;;;;;;;;;5.00;5.00;;;;;;;;5054504;28;45306;-75
2023/09/21 01:08:37;;;;;;;;;6.33;4.00;;;;;;;;5055861;28;44593;-75
2023/09/21 01:11:08;;;;;;;;;4.00;4.00;;;;;;;;5055121;28;46897;-75
2023/09/21 01:13:35;;;;;;;;;3.00;3.00;;;;;;;;5051747;28;45339;-76
2023/09/21 01:16:01;;;;;;;;;3.00;3.00;;;;;;;;5054738;28;45238;-75
2023/09/21 01:18:27;;;;;;;;;4.00;3.25;;;;;;;;5054294;28;45407;-76
2023/09/21 01:20:58;;;;;;;;;3.00;3.00;;;;;;;;5056288;28;45023;-75
2023/09/21 01:23:31;;;;;;;;;5.67;5.67;;;;;;;;5060208;28;45333;-75
2023/09/21 01:25:59;;;;;;;;;3.00;3.00;;;;;;;;5075559;28;44641;-75
2023/09/21 01:28:26;;;;;;;;;3.33;3.33;;;;;;;;5053818;28;46174;-75
2023/09/21 01:30:51;;;;;;;;;6.67;5.67;;;;;;;;5037337;28;45204;-75
2023/09/21 01:33:17;;;;;;;;;4.00;4.00;;;;;;;;5035174;28;45276;-76
2023/09/21 01:35:43;;;;;;;;;4.25;4.25;;;;;;;;5032277;28;45299;-75
2023/09/21 01:38:09;;;;;;;;;4.00;4.00;;;;;;;;5042951;28;46512;-74
2023/09/21 01:40:34;;;;;;;;;4.00;4.00;;;;;;;;5041697;28;46675;-75
2023/09/21 01:43:03;;;;;;;;;5.00;5.00;;;;;;;;5039924;28;45295;-75
2023/09/21 01:45:28;;;;;;;;;3.25;2.25;;;;;;;;5039003;28;45275;-74
2023/09/21 01:47:54;;;;;;;;;3.75;3.75;;;;;;;;5023632;28;45478;-75
2023/09/21 01:50:21;;;;;;;;;2.50;2.50;;;;;;;;5024526;28;45342;-75
2023/09/21 01:52:46;;;;;;;;;3.33;3.33;;;;;;;;5040958;28;45209;-75
2023/09/21 01:55:11;;;;;;;;;2.25;2.25;;;;;;;;5042714;28;45325;-75
2023/09/21 01:57:37;;;;;;;;;3.50;3.50;;;;;;;;5042649;28;46730;-75
2023/09/21 02:00:21;;;;;;;;;3.00;3.00;;;;;;;;5040770;28;46413;-74
2023/09/21 02:02:47;;;;;;;;;3.75;3.75;;;;;;;;5039076;28;45277;-74
2023/09/21 02:05:12;;;;;;;;;3.00;3.00;;;;;;;;5037654;28;45293;-75
2023/09/21 02:07:37;;;;;;;;;4.67;4.67;;;;;;;;5022348;28;45357;-74
2023/09/21 02:10:09;;;;;;;;;5.00;4.33;;;;;;;;5020854;28;48214;-74
2023/09/21 02:12:36;;;;;;;;;2.75;2.75;;;;;;;;5022323;28;45316;-74
2023/09/21 02:15:01;;;;;;;;;3.00;3.00;;;;;;;;5022108;28;45324;-74
2023/09/21 02:17:26;;;;;;;;;3.00;3.00;;;;;;;;5021773;28;45246;-74
2023/09/21 02:19:51;;;;;;;;;3.33;3.33;;;;;;;;5037242;28;46891;-74
2023/09/21 02:22:17;;;;;;;;;4.67;4.33;;;;;;;;5021003;28;45283;-75
2023/09/21 02:24:42;;;;;;;;;7.33;7.33;;;;;;;;5022434;28;45390;-75
2023/09/21 02:27:08;;;;;;;;;4.00;4.00;;;;;;;;5021827;28;45383;-75
2023/09/21 02:29:33;;;;;;;;;7.00;5.33;;;;;;;;5021399;28;45426;-75
2023/09/21 02:31:58;;;;;;;;;5.00;5.00;;;;;;;;5020198;28;45370;-75
2023/09/21 02:34:23;;;;;;;;;4.33;4.33;;;;;;;;5020072;28;45583;-75
2023/09/21 02:36:52;;;;;;;;;4.67;4.67;;;;;;;;5021890;28;45445;-75
2023/09/21 02:39:18;;;;;;;;;4.00;4.00;;;;;;;;5021773;28;45470;-75
2023/09/21 02:41:43;;;;;;;;;5.00;4.67;;;;;;;;5021693;28;45217;-75
2023/09/21 02:44:08;;;;;;;;;5.67;5.67;;;;;;;;5021589;28;45479;-75
2023/09/21 02:46:34;;;;;;;;;3.33;3.00;;;;;;;;5019243;28;46421;-74
2023/09/21 02:48:59;;;;;;;;;5.00;5.00;;;;;;;;5019978;28;46987;-73
2023/09/21 02:51:24;;;;;;;;;5.00;5.00;;;;;;;;5021588;28;45291;-74
2023/09/21 02:53:49;;;;;;;;;6.00;4.67;;;;;;;;5021675;28;45591;-74
2023/09/21 02:56:19;;;;;;;;;3.00;3.00;;;;;;;;5020238;28;47043;-74
2023/09/21 02:58:44;;;;;;;;;3.67;3.67;;;;;;;;5019633;28;47035;-74
2023/09/21 03:01:11;;;;;;;;;4.33;4.33;;;;;;;;5020018;28;45323;-74
2023/09/21 03:03:36;;;;;;;;;5.00;4.00;;;;;;;;5020141;28;45360;-74
2023/09/21 03:06:03;;;;;;;;;4.67;4.67;;;;;;;;5018717;28;45692;-74
2023/09/21 03:08:28;;;;;;;;;4.00;3.33;;;;;;;;5019990;28;47311;-75
2023/09/21 03:10:54;;;;;;;;;3.50;3.50;;;;;;;;5003395;28;45673;-74
2023/09/21 03:13:19;;;;;;;;;4.00;4.00;;;;;;;;5021269;28;45304;-75
2023/09/21 03:15:45;;;;;;;;;3.00;3.00;;;;;;;;5019827;28;45600;-75
2023/09/21 03:18:10;;;;;;;;;5.67;3.00;;;;;;;;5021117;28;45216;-75
2023/09/21 03:20:36;;;;;;;;;4.00;4.00;;;;;;;;5019765;28;45231;-75
2023/09/21 03:23:09;;;;;;;;;4.67;4.67;;;;;;;;5020241;28;45489;-74
2023/09/21 03:25:40;;;;;;;;;2.50;2.50;;;;;;;;5019529;28;46584;-75
2023/09/21 03:28:10;;;;;;;;;4.00;3.33;;;;;;;;5020968;28;45493;-74
2023/09/21 03:30:56;;;;;;;;;4.33;4.00;;;;;;;;5039773;28;45243;-75
2023/09/21 03:33:21;;;;;;;;;3.67;3.00;;;;;;;;5041101;28;45161;-75
2023/09/21 03:35:47;;;;;;;;;4.00;4.00;;;;;;;;5040675;28;45430;-74
2023/09/21 03:38:12;;;;;;;;;2.33;2.33;;;;;;;;5039551;28;48667;-75
2023/09/21 03:40:41;;;;;;;;;3.00;3.00;;;;;;;;5039620;28;45958;-75
2023/09/21 03:43:09;;;;;;;;;3.00;3.00;;;;;;;;5056415;28;45324;-75
2023/09/21 03:45:35;;;;;;;;;5.00;4.67;;;;;;;;5038659;28;46412;-75
2023/09/21 03:48:04;;;;;;;;;4.33;4.00;;;;;;;;5040624;28;45285;-75
2023/09/21 03:50:29;;;;;;;;;4.00;4.00;;;;;;;;5040914;28;45222;-75
2023/09/21 03:52:54;;;;;;;;;5.00;4.00;;;;;;;;5040770;28;45303;-75
2023/09/21 03:55:20;;;;;;;;;4.00;4.00;;;;;;;;5040120;28;45424;-74
2023/09/21 03:57:50;;;;;;;;;3.00;3.00;;;;;;;;5040455;28;45406;-74
2023/09/21 04:00:49;;;;;;;;;3.33;3.00;;;;;;;;5039966;28;45366;-75
2023/09/21 04:03:11;;;;;;;;;4.00;4.00;;;;;;;;5037909;28;45267;-75
2023/09/21 04:05:40;;;;;;;;;3.67;3.67;;;;;;;;5039703;28;45478;-75
2023/09/21 04:08:06;;;;;;;;;3.00;3.00;;;;;;;;5038037;28;47146;-75
2023/09/21 04:10:31;;;;;;;;;4.33;4.33;;;;;;;;5039918;28;45325;-75
2023/09/21 04:12:56;;;;;;;;;6.00;4.33;;;;;;;;5040479;28;45358;-75
2023/09/21 04:15:22;;;;;;;;;3.00;3.00;;;;;;;;5040141;28;45301;-75
2023/09/21 04:17:47;;;;;;;;;3.00;3.00;;;;;;;;5040153;28;45383;-75
2023/09/21 04:20:12;;;;;;;;;2.00;2.00;;;;;;;;5040187;28;45308;-75
2023/09/21 04:22:42;;;;;;;;;3.67;3.67;;;;;;;;5038832;28;45359;-76
2023/09/21 04:25:08;;;;;;;;;3.00;3.00;;;;;;;;5039534;28;45282;-75
2023/09/21 04:27:34;;;;;;;;;4.00;4.00;;;;;;;;5037904;28;47154;-75
2023/09/21 04:29:59;;;;;;;;;5.33;4.67;;;;;;;;5024141;28;45461;-75
2023/09/21 04:32:25;;;;;;;;;3.00;3.00;;;;;;;;5035514;28;45226;-74
2023/09/21 04:34:50;;;;;;;;;5.00;5.00;;;;;;;;5020163;28;45411;-75
2023/09/21 04:37:15;;;;;;;;;5.00;4.00;;;;;;;;5018901;28;45467;-75
2023/09/21 04:39:40;;;;;;;;;5.00;4.00;;;;;;;;5019830;28;45659;-74
2023/09/21 04:42:05;;;;;;;;;2.33;2.00;;;;;;;;5020074;28;45326;-74
2023/09/21 04:44:32;;;;;;;;;5.00;5.00;;;;;;;;5034639;28;46116;-74
2023/09/21 04:46:58;;;;;;;;;3.00;3.00;;;;;;;;5019787;28;45528;-74
2023/09/21 04:49:24;;;;;;;;;3.00;3.00;;;;;;;;5019928;28;45355;-75
2023/09/21 04:51:49;;;;;;;;;4.00;4.00;;;;;;;;5019897;28;45257;-74
2023/09/21 04:54:15;;;;;;;;;2.00;2.00;;;;;;;;5034911;28;47021;-74
2023/09/21 04:56:40;;;;;;;;;5.67;5.67;;;;;;;;5018820;28;45974;-75
2023/09/21 04:59:05;;;;;;;;;6.33;5.67;;;;;;;;5019330;28;45396;-74
2023/09/21 05:01:31;;;;;;;;;3.00;2.00;;;;;;;;5019988;28;45153;-74
2023/09/21 05:03:56;;;;;;;;;4.00;4.00;;;;;;;;5019558;28;45289;-74
2023/09/21 05:06:23;;;;;;;;;6.00;5.00;;;;;;;;5043582;28;47922;-75
2023/09/21 05:08:48;;;;;;;;;6.33;5.00;;;;;;;;5038659;28;45271;-75
2023/09/21 05:11:13;;;;;;;;;5.00;4.00;;;;;;;;5039314;28;45591;-75
2023/09/21 05:13:40;;;;;;;;;7.00;5.00;;;;;;;;5038529;28;45602;-74
2023/09/21 05:16:05;;;;;;;;;4.00;4.00;;;;;;;;5037635;28;45273;-75
2023/09/21 05:18:30;;;;;;;;;4.00;3.33;;;;;;;;5039317;28;45477;-74
2023/09/21 05:20:56;;;;;;;;;5.00;5.00;;;;;;;;5038951;28;45374;-75
2023/09/21 05:23:21;;;;;;;;;4.67;4.67;;;;;;;;5036978;28;45700;-74
2023/09/21 05:25:46;;;;;;;;;3.75;3.75;;;;;;;;5054239;28;46821;-75
2023/09/21 05:28:11;;;;;;;;;5.00;3.33;;;;;;;;5039077;28;45401;-75
2023/09/21 05:30:37;;;;;;;;;6.00;4.67;;;;;;;;5038380;28;45221;-74
2023/09/21 05:33:02;;;;;;;;;7.00;7.00;;;;;;;;5036703;28;45902;-74
2023/09/21 05:35:28;;;;;;;;;3.00;3.00;;;;;;;;5036242;28;48262;-75
2023/09/21 05:37:53;;;;;;;;;5.00;5.00;;;;;;;;5038582;28;45529;-74
2023/09/21 05:40:18;;;;;;;;;3.67;3.67;;;;;;;;5039226;28;45351;-74
2023/09/21 05:42:45;;;;;;;;;4.00;3.00;;;;;;;;5054397;28;47356;-75
2023/09/21 05:45:10;;;;;;;;;3.67;2.67;;;;;;;;5039040;28;45387;-75
2023/09/21 05:47:36;;;;;;;;;3.00;3.00;;;;;;;;5037951;28;45247;-76
2023/09/21 05:50:03;;;;;;;;;4.00;3.00;;;;;;;;5038927;28;45270;-76
2023/09/21 05:52:31;;;;;;;;;4.00;4.00;;;;;;;;5042542;28;45511;-74
2023/09/21 05:54:57;;;;;;;;;3.67;3.67;;;;;;;;5054226;28;47437;-75
2023/09/21 05:57:22;;;;;;;;;3.00;3.00;;;;;;;;5043590;28;45301;-75
2023/09/21 05:59:49;;;;;;;;;5.33;5.33;;;;;;;;5039763;28;45319;-75
2023/09/21 06:02:15;;;;;;;;;6.33;6.33;;;;;;;;5040138;28;45551;-75
2023/09/21 06:04:41;;;;;;;;;6.00;4.75;;;;;;;;5059275;28;46918;-75
2023/09/21 06:07:06;;;;;;;;;8.00;6.00;;;;;;;;5042713;28;45194;-75
2023/09/21 06:09:33;;;;;;;;;4.00;3.00;;;;;;;;5060710;28;45655;-76
2023/09/21 06:11:59;;;;;;;;;5.67;4.67;;;;;;;;5058178;28;47075;-75
2023/09/21 06:14:24;;;;;;;;;3.67;3.67;;;;;;;;5041411;28;46408;-76
2023/09/21 06:16:51;;;;;;;;;4.00;4.00;;;;;;;;5043228;28;45298;-75
2023/09/21 06:19:17;;;;;;;;;5.00;4.67;;;;;;;;5060035;28;45392;-76
2023/09/21 06:21:42;;;;;;;;;6.00;4.67;;;;;;;;5042547;28;45231;-77
2023/09/21 06:24:08;;;;;;;;;3.00;3.00;;;;;;;;5057624;28;48287;-78
2023/09/21 06:26:34;;;;;;;;;4.00;3.67;;;;;;;;5043323;28;45391;-76
2023/09/21 06:28:59;;;;;;;;;4.00;4.00;;;;;;;;5035740;28;45358;-76
2023/09/21 06:31:25;;;;;;;;;4.33;4.00;;;;;;;;5021987;28;45436;-76
2023/09/21 06:33:50;;;;;;;;;8.00;5.00;;;;;;;;5022170;28;46585;-75
2023/09/21 06:36:18;;;;;;;;;3.00;3.00;;;;;;;;5022469;28;45287;-76
2023/09/21 06:38:43;;;;;;;;;4.00;4.00;;;;;;;;5025594;28;45225;-76
2023/09/21 06:41:12;;;;;;;;;5.00;3.33;;;;;;;;5024611;28;45311;-76
2023/09/21 06:43:42;;;;;;;;;2.33;0.00;;;;;;;;5038594;28;46977;-75
2023/09/21 06:46:07;;;;;;;;;2.00;2.00;;;;;;;;5022181;28;45423;-75
2023/09/21 06:48:32;;;;;;;;;5.00;5.00;;;;;;;;5050331;28;45206;-76
2023/09/21 06:50:57;;;;;;;;;4.67;4.67;;;;;;;;5022977;28;45928;-77
2023/09/21 06:53:23;;;;;;;;;4.67;4.67;;;;;;;;5030542;28;48287;-77
2023/09/21 06:55:48;;;;;;;;;3.00;3.00;;;;;;;;5056696;28;45783;-79
2023/09/21 06:58:13;;;;;;;;;4.00;4.00;;;;;;;;5035412;28;45313;-77
2023/09/21 07:00:39;;;;;;;;;5.00;5.00;;;;;;;;5037643;28;47543;-76
2023/09/21 07:03:04;;;;;;;;;4.00;4.00;;;;;;;;5051658;28;46574;-77
2023/09/21 07:05:29;;;;;;;;;4.00;4.00;;;;;;;;5033266;28;46041;-76
2023/09/21 07:07:54;;;;;;;;;5.00;4.67;;;;;;;;5047495;28;45382;-76
2023/09/21 07:10:20;;;;;;;;;4.00;3.00;;;;;;;;5043445;28;45910;-76
2023/09/21 07:12:45;;;;;;;;;2.00;2.00;;;;;;;;5044017;28;46420;-76
2023/09/21 07:15:10;;;;;;;;;4.67;3.67;;;;;;;;5044679;28;45674;-76
2023/09/21 07:17:36;;;;;;;;;3.67;3.67;;;;;;;;5039902;28;45588;-76
2023/09/21 07:20:04;;;;;;;;;4.33;4.33;;;;;;;;5038482;28;45851;-76
2023/09/21 07:22:29;;;;;;;;;4.33;3.33;;;;;;;;5041370;28;45394;-77
2023/09/21 07:24:54;;;;;;;;;4.00;4.00;;;;;;;;5038632;28;45383;-76
2023/09/21 07:27:21;;;;;;;;;3.00;2.00;;;;;;;;5040951;28;45409;-78
2023/09/21 07:29:47;;;;;;;;;4.00;4.00;;;;;;;;5044742;28;46638;-78
2023/09/21 07:32:12;;;;;;;;;4.00;3.67;;;;;;;;5040777;28;45430;-77
2023/09/21 07:34:37;;;;;;;;;4.00;4.00;;;;;;;;5048665;28;45250;-76
2023/09/21 07:37:03;;;;;;;;;4.33;2.67;;;;;;;;5052347;28;44776;-76
2023/09/21 07:39:28;;;;;;;;;4.00;4.00;;;;;;;;5054532;28;45294;-76
2023/09/21 07:41:53;;;;;;;;;4.33;4.33;;;;;;;;5069993;28;47330;-78
2023/09/21 07:44:18;;;;;;;;;3.67;3.67;;;;;;;;5034978;28;45176;-78
2023/09/21 07:46:44;;;;;;;;;5.67;3.33;;;;;;;;5031067;28;45362;-78
2023/09/21 07:49:09;;;;;;;;;3.33;3.33;;;;;;;;5057704;28;46936;-76
2023/09/21 07:51:34;;;;;;;;;4.00;4.00;;;;;;;;5043887;28;45328;-76
2023/09/21 07:54:00;;;;;;;;;3.00;3.00;;;;;;;;5056336;28;45355;-78
2023/09/21 07:56:26;;;;;;;;;2.75;2.50;;;;;;;;5021663;28;45389;-77
2023/09/21 07:58:51;;;;;;;;;2.67;2.67;;;;;;;;5002271;28;47412;-76
2023/09/21 08:01:17;;;;;;;;;4.00;4.00;;;;;;;;5020333;28;45827;-75
2023/09/21 08:03:42;;;;;;;;;3.00;3.00;;;;;;;;5019197;28;45481;-77
2023/09/21 08:06:07;;;;;;;;;3.50;3.50;;;;;;;;5022435;28;45354;-76
2023/09/21 08:08:32;;;;;;;;;5.00;4.00;;;;;;;;5019026;28;46212;-76
2023/09/21 08:10:57;;;;;;;;;3.00;3.00;;;;;;;;5018168;28;48336;-76
2023/09/21 08:13:24;;;;;;;;;3.00;3.00;;;;;;;;5022561;28;45381;-77
2023/09/21 08:15:49;;;;;;;;;4.00;3.00;;;;;;;;5038153;28;45498;-76
2023/09/21 08:18:14;;;;;;;;;3.00;3.00;;;;;;;;5041808;28;45536;-76
2023/09/21 08:20:39;;;;;;;;;4.00;4.00;;;;;;;;5039118;28;45284;-78
2023/09/21 08:23:08;;;;;;;;;2.33;2.33;;;;;;;;5045173;28;44803;-76
2023/09/21 08:25:34;;;;;;;;;7.00;4.00;;;;;;;;5042971;28;45294;-75
2023/09/21 08:28:00;;;;;;;;;3.00;3.00;;;;;;;;5041187;28;46849;-75
2023/09/21 08:30:25;;;;;;;;;4.00;3.00;;;;;;;;5025273;28;45433;-77
2023/09/21 08:32:50;;;;;;;;;2.00;2.00;;;;;;;;5022672;28;45481;-77
2023/09/21 08:35:16;;;;;;;;;3.50;3.50;;;;;;;;5039583;28;45505;-75
2023/09/21 08:37:41;;;;;;;;;3.00;3.00;;;;;;;;5036893;28;46042;-75
2023/09/21 08:40:07;;;;;;;;;4.00;3.67;;;;;;;;5037267;28;46098;-78
2023/09/21 08:42:32;;;;;;;;;2.00;1.00;;;;;;;;5031904;28;45503;-76
2023/09/21 08:44:59;;;;;;;;;1.00;1.00;;;;;;;;5041053;28;45402;-77
2023/09/21 08:47:24;;;;;;;;;2.00;2.00;;;;;;;;5035788;28;47388;-77
2023/09/21 08:49:50;;;;;;;;;3.00;3.00;;;;;;;;5039242;28;46364;-76
2023/09/21 08:52:17;;;;;;;;;5.00;3.00;;;;;;;;5036840;28;45279;-76
2023/09/21 08:54:42;;;;;;;;;3.75;3.75;;;;;;;;5038080;28;45246;-76
2023/09/21 08:57:11;;;;;;;;;1.50;1.50;;;;;;;;5033231;28;45160;-76
2023/09/21 08:59:44;;;;;;;;;3.00;3.00;;;;;;;;5037809;28;45622;-76
2023/09/21 09:02:12;;;;;;;;;2.00;2.00;;;;;;;;5034525;28;45351;-75
2023/09/21 09:04:39;;;;;;;;;2.75;2.75;;;;;;;;5036616;28;45465;-76
2023/09/21 09:07:04;;;;;;;;;4.00;4.00;;;;;;;;5040230;28;45414;-76
2023/09/21 09:09:30;;;;;;;;;3.33;3.33;;;;;;;;5037241;28;45400;-76
2023/09/21 09:11:56;;;;;;;;;3.00;3.00;;;;;;;;5032378;28;46004;-76
2023/09/21 09:14:21;;;;;;;;;3.50;2.50;;;;;;;;5036380;28;45422;-76
2023/09/21 09:16:46;;;;;;;;;2.00;1.00;;;;;;;;5036913;28;46426;-75
2023/09/21 09:19:13;;;;;;;;;0.67;0.67;;;;;;;;5038505;28;46013;-76
2023/09/21 09:21:39;;;;;;;;;2.00;2.00;;;;;;;;5037694;28;45675;-76
2023/09/21 09:24:04;;;;;;;;;2.67;2.00;;;;;;;;5035572;28;45497;-76
2023/09/21 09:26:30;;;;;;;;;2.67;2.67;;;;;;;;5033068;28;45573;-75
2023/09/21 09:29:04;;;;;;;;;1.33;1.33;;;;;;;;5036455;28;46615;-76
2023/09/21 09:31:30;;;;;;;;;4.33;3.00;;;;;;;;5035151;28;45590;-76
2023/09/21 09:33:57;;;;;;;;;1.75;1.75;;;;;;;;5039002;28;45440;-78
2023/09/21 09:36:23;;;;;;;;;1.50;1.50;;;;;;;;5036866;28;47010;-76
2023/09/21 09:38:48;;;;;;;;;2.33;2.33;;;;;;;;5050666;28;47362;-76
2023/09/21 09:41:14;;;;;;;;;2.00;2.00;;;;;;;;5038650;28;45302;-75
2023/09/21 09:43:41;;;;;;;;;2.00;2.00;;;;;;;;5037611;28;45581;-75
2023/09/21 09:46:12;;;;;;;;;4.50;1.75;;;;;;;;5039721;28;45659;-76
2023/09/21 09:48:39;;;;;;;;;2.00;2.00;;;;;;;;5038236;28;46891;-76
2023/09/21 09:51:06;;;;;;;;;2.50;2.00;;;;;;;;5041443;28;45377;-77
2023/09/21 09:53:34;;;;;;;;;2.00;1.50;;;;;;;;5040859;28;45506;-77
2023/09/21 09:56:00;;;;;;;;;2.00;1.33;;;;;;;;5040525;28;46399;-76
2023/09/21 09:58:27;;;;;;;;;4.25;3.50;;;;;;;;5040085;28;47749;-75
2023/09/21 10:00:52;;;;;;;;;4.00;1.50;;;;;;;;5040388;28;45466;-76
2023/09/21 10:03:18;;;;;;;;;2.00;2.00;;;;;;;;5041893;28;45420;-76
2023/09/21 10:05:45;;;;;;;;;2.50;2.50;;;;;;;;5040058;28;45571;-77
2023/09/21 10:08:11;;;;;;;;;3.00;3.00;;;;;;;;5041983;28;45433;-78
2023/09/21 10:10:39;;;;;;;;;2.00;1.33;;;;;;;;5040437;28;45205;-81
2023/09/21 10:13:06;;;;;;;;;1.00;1.00;;;;;;;;5040821;28;45352;-78
2023/09/21 10:15:33;;;;;;;;;3.00;2.67;;;;;;;;5041852;28;45353;-79
2023/09/21 10:17:59;;;;;;;;;4.00;3.00;;;;;;;;5041286;28;46447;-77
2023/09/21 10:20:25;;;;;;;;;2.00;2.00;;;;;;;;5042981;28;45344;-80
2023/09/21 10:22:54;;;;;;;;;1.67;1.67;;;;;;;;5041906;28;45492;-79
2023/09/21 10:25:39;;;;;;;;;4.33;3.67;;;;;;;;5042006;28;45334;-76
2023/09/21 10:28:27;;;;;;;;;2.67;2.67;;;;;;;;5041591;28;46135;-78
2023/09/21 10:30:52;;;;;;;;;3.33;3.33;;;;;;;;5021891;28;45322;-78
2023/09/21 10:33:18;;;;;;;;;3.00;3.00;;;;;;;;5044427;28;45345;-79
2023/09/21 10:35:49;;;;;;;;;3.00;3.00;;;;;;;;5043034;28;45341;-76
2023/09/21 10:38:16;;;;;;;;;2.00;2.00;;;;;;;;5040230;28;46899;-77
2023/09/21 10:40:41;;;;;;;;;3.00;3.00;;;;;;;;5040544;28;45446;-77
2023/09/21 10:43:25;;;;;;;;;2.33;2.33;;;;;;;;5035412;28;45556;-78
2023/09/21 10:45:55;;;;;;;;;2.00;2.00;;;;;;;;5044057;28;46584;-78
2023/09/21 10:48:21;;;;;;;;;3.00;2.67;;;;;;;;5019990;28;47973;-76
2023/09/21 10:50:47;;;;;;;;;4.67;4.00;;;;;;;;5037865;28;45543;-76
2023/09/21 10:53:14;;;;;;;;;2.00;2.00;;;;;;;;5038316;28;45283;-78
2023/09/21 10:55:41;;;;;;;;;3.00;3.00;;;;;;;;5039776;28;45564;-76
2023/09/21 10:58:06;;;;;;;;;4.67;2.67;;;;;;;;5037116;28;45704;-77
2023/09/21 11:00:31;;;;;;;;;4.00;4.00;;;;;;;;5038448;28;45961;-77
2023/09/21 11:02:57;;;;;;;;;2.00;2.00;;;;;;;;5033863;28;45393;-77
2023/09/21 11:05:23;;;;;;;;;4.67;3.33;;;;;;;;5035659;28;46248;-75
2023/09/21 11:07:49;;;;;;;;;3.00;3.00;;;;;;;;5036663;28;45947;-76
2023/09/21 11:10:14;;;;;;;;;2.00;1.00;;;;;;;;5034047;28;45564;-76
2023/09/21 11:12:40;;;;;;;;;1.00;1.00;;;;;;;;5036585;28;45348;-75
2023/09/21 11:15:09;;;;;;;;;1.33;1.33;;;;;;;;5035650;28;45365;-74
2023/09/21 11:17:34;;;;;;;;;0.00;0.00;;;;;;;;5051455;28;47223;-76
2023/09/21 11:20:02;;;;;;;;;0.00;0.00;;;;;;;;5055572;28;45410;-75
2023/09/21 11:22:27;;;;;;;;;0.00;0.00;;;;;;;;5040397;28;45347;-76
2023/09/21 11:24:54;;;;;;;;;0.00;0.00;;;;;;;;5035452;28;45353;-77
2023/09/21 11:27:25;;;;;;;;;1.00;1.00;;;;;;;;5038958;28;45405;-77
2023/09/21 11:29:51;;;;;;;;;1.00;1.00;;;;;;;;5032232;28;45515;-79
2023/09/21 11:32:19;;;;;;;;;1.00;1.00;;;;;;;;5039915;28;45372;-76
2023/09/21 11:34:45;;;;;;;;;2.67;2.67;;;;;;;;5028149;28;46223;-76
2023/09/21 11:37:10;;;;;;;;;1.33;1.33;;;;;;;;5039037;28;46334;-76
2023/09/21 11:39:37;;;;;;;;;1.00;1.00;;;;;;;;5037660;28;45419;-76
2023/09/21 11:42:03;;;;;;;;;1.00;1.00;;;;;;;;5031112;28;45602;-76
2023/09/21 11:44:28;;;;;;;;;1.00;1.00;;;;;;;;5037255;28;45832;-76
2023/09/21 11:46:54;;;;;;;;;2.33;1.00;;;;;;;;5040026;28;46012;-75
2023/09/21 11:49:19;;;;;;;;;1.33;1.33;;;;;;;;5043436;28;46331;-78
2023/09/21 11:51:45;;;;;;;;;0.25;0.25;;;;;;;;5053823;28;45303;-76
2023/09/21 11:54:11;;;;;;;;;1.00;1.00;;;;;;;;5035163;28;47308;-76
2023/09/21 11:56:37;;;;;;;;;0.75;0.00;;;;;;;;5034645;28;46899;-76
2023/09/21 11:59:06;;;;;;;;;0.00;0.00;;;;;;;;5032916;28;45520;-77
2023/09/21 12:01:31;;;;;;;;;1.00;0.00;;;;;;;;5035755;28;45563;-76
2023/09/21 12:03:57;;;;;;;;;1.00;1.00;;;;;;;;5033770;28;46993;-76
2023/09/21 12:06:27;;;;;;;;;0.75;0.75;;;;;;;;5029014;28;47334;-76
2023/09/21 12:08:52;;;;;;;;;0.00;0.00;;;;;;;;5021219;28;45779;-78
2023/09/21 12:11:21;;;;;;;;;0.00;0.00;;;;;;;;5018022;28;45411;-76
2023/09/21 12:13:46;;;;;;;;;0.00;0.00;;;;;;;;5017012;28;45439;-76
2023/09/21 12:16:11;;;;;;;;;1.50;1.00;;;;;;;;5017090;28;45438;-77
2023/09/21 12:18:36;;;;;;;;;0.00;0.00;;;;;;;;5018352;28;45341;-75
2023/09/21 12:21:03;;;;;;;;;0.00;0.00;;;;;;;;5018704;28;45333;-76
2023/09/21 12:23:28;;;;;;;;;0.00;0.00;;;;;;;;5035218;28;46213;-75
2023/09/21 12:25:54;;;;;;;;;0.00;0.00;;;;;;;;5037731;28;47386;-75
2023/09/21 12:28:19;;;;;;;;;0.00;0.00;;;;;;;;5038369;28;45598;-74
2023/09/21 12:30:48;;;;;;;;;0.00;0.00;;;;;;;;5039527;28;45251;-74
2023/09/21 12:33:15;;;;;;;;;2.00;0.00;;;;;;;;5024497;28;45577;-74
2023/09/21 12:35:40;;;;;;;;;2.25;0.75;;;;;;;;5038332;28;45428;-74
2023/09/21 12:38:06;;;;;;;;;0.25;0.25;;;;;;;;5019741;28;45369;-74
2023/09/21 12:40:32;;;;;;;;;0.00;0.00;;;;;;;;5017207;28;45206;-74
2023/09/21 12:42:57;;;;;;;;;0.00;0.00;;;;;;;;5030989;28;45862;-74
2023/09/21 12:45:22;;;;;;;;;3.00;1.00;;;;;;;;5037679;28;45461;-74
2023/09/21 12:47:47;;;;;;;;;1.00;1.00;;;;;;;;5026630;28;45327;-74
2023/09/21 12:50:14;;;;;;;;;2.00;2.00;;;;;;;;5017636;28;45659;-74
2023/09/21 12:52:41;;;;;;;;;1.00;1.00;;;;;;;;5038736;28;45306;-75
2023/09/21 12:55:07;;;;;;;;;0.50;0.50;;;;;;;;5037240;28;47302;-75
2023/09/21 12:57:35;;;;;;;;;0.00;0.00;;;;;;;;5037379;28;45843;-75
2023/09/21 13:00:11;;;;;;;;;0.00;0.00;;;;;;;;5037388;28;45462;-75
2023/09/21 13:02:40;;;;;;;;;0.00;0.00;;;;;;;;5038114;28;45535;-76
2023/09/21 13:05:05;;;;;;;;;0.00;0.00;;;;;;;;5037630;28;45276;-75
2023/09/21 13:07:31;;;;;;;;;0.00;0.00;;;;;;;;5018756;28;45309;-78
2023/09/21 13:09:57;;;;;;;;;0.00;0.00;;;;;;;;5038347;28;45395;-77
2023/09/21 13:12:22;;;;;;;;;0.00;0.00;;;;;;;;5018408;28;45874;-78
2023/09/21 13:14:49;;;;;;;;;0.25;0.00;;;;;;;;5025382;28;46967;-77
2023/09/21 13:17:14;;;;;;;;;0.00;0.00;;;;;;;;5052482;28;46019;-77
2023/09/21 13:19:40;;;;;;;;;0.00;0.00;;;;;;;;5038439;28;45295;-77
2023/09/21 13:22:05;;;;;;;;;0.25;0.25;;;;;;;;5035859;28;46011;-78
2023/09/21 13:24:30;;;;;;;;;0.00;0.00;;;;;;;;5039216;28;48233;-77
2023/09/21 13:26:55;;;;;;;;;0.00;0.00;;;;;;;;5025532;28;45420;-76
2023/09/21 13:29:20;;;;;;;;;0.00;0.00;;;;;;;;5033197;28;45546;-75
2023/09/21 13:31:46;;;;;;;;;0.00;0.00;;;;;;;;5035082;28;45671;-76
2023/09/21 13:34:12;;;;;;;;;0.00;0.00;;;;;;;;5037776;28;46204;-77
2023/09/21 13:36:37;;;;;;;;;0.00;0.00;;;;;;;;5027890;28;45415;-77
2023/09/21 13:39:02;;;;;;;;;0.00;0.00;;;;;;;;5041617;28;45459;-77
2023/09/21 13:41:28;;;;;;;;;0.25;0.00;;;;;;;;5030749;28;45368;-77
2023/09/21 13:43:53;;;;;;;;;0.00;0.00;;;;;;;;5028637;28;45253;-76
2023/09/21 13:46:19;;;;;;;;;0.00;0.00;;;;;;;;5030615;28;45320;-78
2023/09/21 13:48:44;;;;;;;;;0.00;0.00;;;;;;;;5016888;28;45479;-77
2023/09/21 13:51:09;;;;;;;;;0.00;0.00;;;;;;;;5018013;28;45554;-78
2023/09/21 13:53:35;;;;;;;;;0.00;0.00;;;;;;;;5024104;28;47828;-78
2023/09/21 13:56:00;;;;;;;;;0.00;0.00;;;;;;;;5032563;28;45401;-78
2023/09/21 13:58:25;;;;;;;;;1.00;0.00;;;;;;;;5017961;28;45607;-78
2023/09/21 14:00:52;;;;;;;;;0.00;0.00;;;;;;;;5016064;28;47224;-76
2023/09/21 14:03:17;;;;;;;;;0.00;0.00;;;;;;;;5016138;28;47272;-78
2023/09/21 14:05:43;;;;;;;;;0.00;0.00;;;;;;;;5018102;28;45379;-79
2023/09/21 14:08:13;;;;;;;;;1.00;1.00;;;;;;;;5050243;28;45264;-77
2023/09/21 14:10:38;;;;;;;;;0.25;0.25;;;;;;;;5016873;28;46232;-77
2023/09/21 14:13:04;;;;;;;;;0.50;0.50;;;;;;;;5032670;28;47664;-77
2023/09/21 14:15:29;;;;;;;;;0.00;0.00;;;;;;;;5017470;28;45242;-77
2023/09/21 14:17:55;;;;;;;;;0.00;0.00;;;;;;;;5031998;28;45379;-76
2023/09/21 14:20:21;;;;;;;;;0.00;0.00;;;;;;;;5017751;28;45277;-76
2023/09/21 14:22:47;;;;;;;;;0.00;0.00;;;;;;;;5017870;28;45875;-77
2023/09/21 14:25:12;;;;;;;;;1.00;0.00;;;;;;;;5017969;28;45405;-78
2023/09/21 14:27:38;;;;;;;;;0.25;0.25;;;;;;;;5018141;28;45286;-77
2023/09/21 14:30:04;;;;;;;;;0.50;0.00;;;;;;;;5039779;28;45504;-76
2023/09/21 14:32:29;;;;;;;;;2.00;0.00;;;;;;;;5040742;28;45372;-76
2023/09/21 14:34:54;;;;;;;;;0.75;0.75;;;;;;;;5040084;28;45372;-75
2023/09/21 14:37:20;;;;;;;;;0.00;0.00;;;;;;;;5041291;28;45352;-75